sensor_id;sensor_type;location;lat;lon;timestamp;temperature;humidity
19952;DHT22;10137;49.406;19.484;2024-03-07T00:00:10;2.40;99.90
19952;DHT22;10137;49.406;19.484;2024-03-07T00:02:44;2.40;99.90
19952;DHT22;10137;49.406;19.484;2024-03-07T00:05:13;2.40;99.90
19952;DHT22;10137;49.406;19.484;2024-03-07T00:07:41;2.40;99.90
19952;DHT22;10137;49.406;19.484;2024-03-07T00:10:09;2.40;99.90
19952;DHT22;10137;49.406;19.484;2024-03-07T00:12:37;2.30;99.90
19952;DHT22;10137;49.406;19.484;2024-03-07T00:15:07;2.30;99.90
19952;DHT22;10137;49.406;19.484;2024-03-07T00:17:34;2.30;99.90
19952;DHT22;10137;49.406;19.484;2024-03-07T00:20:03;2.40;99.90
19952;DHT22;10137;49.406;19.484;2024-03-07T00:22:30;2.30;99.90
19952;DHT22;10137;49.406;19.484;2024-03-07T00:24:57;2.40;99.90
19952;DHT22;10137;49.406;19.484;2024-03-07T00:27:25;2.40;99.90
19952;DHT22;10137;49.406;19.484;2024-03-07T00:29:53;2.30;99.90
19952;DHT22;10137;49.406;19.484;2024-03-07T00:32:20;2.30;99.90
19952;DHT22;10137;49.406;19.484;2024-03-07T00:34:48;2.30;99.90
19952;DHT22;10137;49.406;19.484;2024-03-07T00:37:16;2.30;99.90
19952;DHT22;10137;49.406;19.484;2024-03-07T00:39:43;2.30;99.90
19952;DHT22;10137;49.406;19.484;2024-03-07T00:42:10;2.30;99.90
19952;DHT22;10137;49.406;19.484;2024-03-07T00:44:37;2.30;99.90
19952;DHT22;10137;49.406;19.484;2024-03-07T00:47:04;2.30;99.90
19952;DHT22;10137;49.406;19.484;2024-03-07T00:49:31;2.30;99.90
19952;DHT22;10137;49.406;19.484;2024-03-07T00:51:58;2.30;99.90
19952;DHT22;10137;49.406;19.484;2024-03-07T00:54:26;2.20;99.90
19952;DHT22;10137;49.406;19.484;2024-03-07T00:56:53;2.20;99.90
19952;DHT22;10137;49.406;19.484;2024-03-07T00:59:20;2.10;99.90
19952;DHT22;10137;49.406;19.484;2024-03-07T01:01:48;2.10;99.90
19952;DHT22;10137;49.406;19.484;2024-03-07T01:04:16;2.20;99.90
19952;DHT22;10137;49.406;19.484;2024-03-07T01:06:43;2.20;99.90
19952;DHT22;10137;49.406;19.484;2024-03-07T01:09:10;2.20;99.90
19952;DHT22;10137;49.406;19.484;2024-03-07T01:11:42;2.20;99.90
19952;DHT22;10137;49.406;19.484;2024-03-07T01:14:10;2.20;99.90
19952;DHT22;10137;49.406;19.484;2024-03-07T01:16:37;2.10;99.90
19952;DHT22;10137;49.406;19.484;2024-03-07T01:19:04;2.10;99.90
19952;DHT22;10137;49.406;19.484;2024-03-07T01:21:32;2.10;99.90
19952;DHT22;10137;49.406;19.484;2024-03-07T01:23:59;2.00;99.90
19952;DHT22;10137;49.406;19.484;2024-03-07T01:26:27;2.00;99.90
19952;DHT22;10137;49.406;19.484;2024-03-07T01:28:56;2.00;99.90
19952;DHT22;10137;49.406;19.484;2024-03-07T01:31:24;2.00;99.90
19952;DHT22;10137;49.406;19.484;2024-03-07T01:33:51;2.00;99.90
19952;DHT22;10137;49.406;19.484;2024-03-07T01:36:19;2.00;99.90
19952;DHT22;10137;49.406;19.484;2024-03-07T01:38:46;2.10;99.90
19952;DHT22;10137;49.406;19.484;2024-03-07T01:41:13;2.00;99.90
19952;DHT22;10137;49.406;19.484;2024-03-07T01:43:40;2.00;99.90
19952;DHT22;10137;49.406;19.484;2024-03-07T01:46:09;2.00;99.90
19952;DHT22;10137;49.406;19.484;2024-03-07T01:48:37;2.00;99.90
19952;DHT22;10137;49.406;19.484;2024-03-07T01:51:06;2.10;99.90
19952;DHT22;10137;49.406;19.484;2024-03-07T01:53:34;2.10;99.90
19952;DHT22;10137;49.406;19.484;2024-03-07T01:56:02;2.00;99.90
19952;DHT22;10137;49.406;19.484;2024-03-07T01:58:30;2.00;99.90
19952;DHT22;10137;49.406;19.484;2024-03-07T02:00:58;2.00;99.90
19952;DHT22;10137;49.406;19.484;2024-03-07T02:03:26;2.00;99.90
19952;DHT22;10137;49.406;19.484;2024-03-07T02:05:53;2.00;99.90
19952;DHT22;10137;49.406;19.484;2024-03-07T02:08:20;2.10;99.90
19952;DHT22;10137;49.406;19.484;2024-03-07T02:10:47;2.10;99.90
19952;DHT22;10137;49.406;19.484;2024-03-07T02:13:14;2.10;99.90
19952;DHT22;10137;49.406;19.484;2024-03-07T02:15:41;2.10;99.90
19952;DHT22;10137;49.406;19.484;2024-03-07T02:18:09;2.10;99.90
19952;DHT22;10137;49.406;19.484;2024-03-07T02:20:37;2.10;99.90
19952;DHT22;10137;49.406;19.484;2024-03-07T02:23:05;2.10;99.90
19952;DHT22;10137;49.406;19.484;2024-03-07T02:25:33;2.10;99.90
19952;DHT22;10137;49.406;19.484;2024-03-07T02:28:03;2.20;99.90
19952;DHT22;10137;49.406;19.484;2024-03-07T02:30:30;2.10;99.90
19952;DHT22;10137;49.406;19.484;2024-03-07T02:32:58;2.10;99.90
19952;DHT22;10137;49.406;19.484;2024-03-07T02:35:32;2.10;99.90
19952;DHT22;10137;49.406;19.484;2024-03-07T02:38:00;2.10;99.90
19952;DHT22;10137;49.406;19.484;2024-03-07T02:40:29;2.20;99.90
19952;DHT22;10137;49.406;19.484;2024-03-07T02:42:56;2.20;99.90
19952;DHT22;10137;49.406;19.484;2024-03-07T02:45:23;2.20;99.90
19952;DHT22;10137;49.406;19.484;2024-03-07T02:47:50;2.20;99.90
19952;DHT22;10137;49.406;19.484;2024-03-07T02:50:17;2.20;99.90
19952;DHT22;10137;49.406;19.484;2024-03-07T02:52:44;2.20;99.90
19952;DHT22;10137;49.406;19.484;2024-03-07T02:55:11;2.20;99.90
19952;DHT22;10137;49.406;19.484;2024-03-07T02:57:40;2.20;99.90
19952;DHT22;10137;49.406;19.484;2024-03-07T03:00:07;2.10;99.90
19952;DHT22;10137;49.406;19.484;2024-03-07T03:02:45;2.20;99.90
19952;DHT22;10137;49.406;19.484;2024-03-07T03:05:12;2.20;99.90
19952;DHT22;10137;49.406;19.484;2024-03-07T03:07:40;2.10;99.90
19952;DHT22;10137;49.406;19.484;2024-03-07T03:10:08;2.20;99.90
19952;DHT22;10137;49.406;19.484;2024-03-07T03:12:37;2.10;99.90
19952;DHT22;10137;49.406;19.484;2024-03-07T03:15:07;2.00;99.90
19952;DHT22;10137;49.406;19.484;2024-03-07T03:17:35;2.00;99.90
19952;DHT22;10137;49.406;19.484;2024-03-07T03:20:02;2.00;99.90
19952;DHT22;10137;49.406;19.484;2024-03-07T03:22:35;1.90;99.90
19952;DHT22;10137;49.406;19.484;2024-03-07T03:25:02;1.90;99.90
19952;DHT22;10137;49.406;19.484;2024-03-07T03:27:29;1.90;99.90
19952;DHT22;10137;49.406;19.484;2024-03-07T03:29:55;1.90;99.90
19952;DHT22;10137;49.406;19.484;2024-03-07T03:32:24;1.90;99.90
19952;DHT22;10137;49.406;19.484;2024-03-07T03:34:50;2.00;99.90
19952;DHT22;10137;49.406;19.484;2024-03-07T03:37:19;1.90;99.90
19952;DHT22;10137;49.406;19.484;2024-03-07T03:39:45;1.90;99.90
19952;DHT22;10137;49.406;19.484;2024-03-07T03:42:12;1.90;99.90
19952;DHT22;10137;49.406;19.484;2024-03-07T03:44:39;2.00;99.90
19952;DHT22;10137;49.406;19.484;2024-03-07T03:47:06;2.00;99.90
19952;DHT22;10137;49.406;19.484;2024-03-07T03:49:34;1.90;99.90
19952;DHT22;10137;49.406;19.484;2024-03-07T03:52:01;2.00;99.90
19952;DHT22;10137;49.406;19.484;2024-03-07T03:54:28;2.10;99.90
19952;DHT22;10137;49.406;19.484;2024-03-07T03:56:55;2.00;99.90
19952;DHT22;10137;49.406;19.484;2024-03-07T03:59:24;2.00;99.90
19952;DHT22;10137;49.406;19.484;2024-03-07T04:01:51;1.90;99.90
19952;DHT22;10137;49.406;19.484;2024-03-07T04:04:17;1.90;99.90
19952;DHT22;10137;49.406;19.484;2024-03-07T04:06:46;1.80;99.90
19952;DHT22;10137;49.406;19.484;2024-03-07T04:09:13;1.80;99.90
19952;DHT22;10137;49.406;19.484;2024-03-07T04:11:41;2.00;99.90
19952;DHT22;10137;49.406;19.484;2024-03-07T04:14:08;2.00;99.90
19952;DHT22;10137;49.406;19.484;2024-03-07T04:16:35;1.80;99.90
19952;DHT22;10137;49.406;19.484;2024-03-07T04:19:02;1.80;99.90
19952;DHT22;10137;49.406;19.484;2024-03-07T04:21:29;1.80;99.90
19952;DHT22;10137;49.406;19.484;2024-03-07T04:23:58;1.80;99.90
19952;DHT22;10137;49.406;19.484;2024-03-07T04:26:25;1.80;99.90
19952;DHT22;10137;49.406;19.484;2024-03-07T04:28:52;1.80;99.90
19952;DHT22;10137;49.406;19.484;2024-03-07T04:31:19;1.80;99.90
19952;DHT22;10137;49.406;19.484;2024-03-07T04:33:46;1.80;99.90
19952;DHT22;10137;49.406;19.484;2024-03-07T04:36:13;1.80;99.90
19952;DHT22;10137;49.406;19.484;2024-03-07T04:38:40;1.70;99.90
19952;DHT22;10137;49.406;19.484;2024-03-07T04:41:12;1.70;99.90
19952;DHT22;10137;49.406;19.484;2024-03-07T04:43:41;1.70;99.90
19952;DHT22;10137;49.406;19.484;2024-03-07T04:46:08;1.70;99.90
19952;DHT22;10137;49.406;19.484;2024-03-07T04:48:36;1.70;99.90
19952;DHT22;10137;49.406;19.484;2024-03-07T04:51:03;1.80;99.90
19952;DHT22;10137;49.406;19.484;2024-03-07T04:53:30;1.80;99.90
19952;DHT22;10137;49.406;19.484;2024-03-07T04:55:57;1.90;99.90
19952;DHT22;10137;49.406;19.484;2024-03-07T04:58:25;1.90;99.90
19952;DHT22;10137;49.406;19.484;2024-03-07T05:00:52;1.80;99.90
19952;DHT22;10137;49.406;19.484;2024-03-07T05:03:19;1.90;99.90
19952;DHT22;10137;49.406;19.484;2024-03-07T05:05:46;1.90;99.90
19952;DHT22;10137;49.406;19.484;2024-03-07T05:08:13;1.90;99.90
19952;DHT22;10137;49.406;19.484;2024-03-07T05:10:40;1.90;99.90
19952;DHT22;10137;49.406;19.484;2024-03-07T05:13:07;1.90;99.90
19952;DHT22;10137;49.406;19.484;2024-03-07T05:15:35;1.90;99.90
19952;DHT22;10137;49.406;19.484;2024-03-07T05:18:02;1.90;99.90
19952;DHT22;10137;49.406;19.484;2024-03-07T05:20:30;1.90;99.90
19952;DHT22;10137;49.406;19.484;2024-03-07T05:22:57;1.90;99.90
19952;DHT22;10137;49.406;19.484;2024-03-07T05:25:24;1.90;99.90
19952;DHT22;10137;49.406;19.484;2024-03-07T05:27:52;2.00;99.90
19952;DHT22;10137;49.406;19.484;2024-03-07T05:30:20;1.90;99.90
19952;DHT22;10137;49.406;19.484;2024-03-07T05:32:50;1.90;99.90
19952;DHT22;10137;49.406;19.484;2024-03-07T05:35:17;1.90;99.90
19952;DHT22;10137;49.406;19.484;2024-03-07T05:37:43;1.90;99.90
19952;DHT22;10137;49.406;19.484;2024-03-07T05:40:12;1.80;99.90
19952;DHT22;10137;49.406;19.484;2024-03-07T05:42:39;1.80;99.90
19952;DHT22;10137;49.406;19.484;2024-03-07T05:45:07;1.70;99.90
19952;DHT22;10137;49.406;19.484;2024-03-07T05:47:34;1.70;99.90
19952;DHT22;10137;49.406;19.484;2024-03-07T05:50:03;1.70;99.90
19952;DHT22;10137;49.406;19.484;2024-03-07T05:52:32;1.70;99.90
19952;DHT22;10137;49.406;19.484;2024-03-07T05:54:59;1.80;99.90
19952;DHT22;10137;49.406;19.484;2024-03-07T05:57:26;1.80;99.90
19952;DHT22;10137;49.406;19.484;2024-03-07T05:59:53;1.80;99.90
19952;DHT22;10137;49.406;19.484;2024-03-07T06:02:22;1.80;99.90
19952;DHT22;10137;49.406;19.484;2024-03-07T06:04:49;1.70;99.90
19952;DHT22;10137;49.406;19.484;2024-03-07T06:07:17;1.70;99.90
19952;DHT22;10137;49.406;19.484;2024-03-07T06:09:44;1.80;99.90
19952;DHT22;10137;49.406;19.484;2024-03-07T06:12:11;1.80;99.90
19952;DHT22;10137;49.406;19.484;2024-03-07T06:14:38;1.80;99.90
19952;DHT22;10137;49.406;19.484;2024-03-07T06:17:05;1.80;99.90
19952;DHT22;10137;49.406;19.484;2024-03-07T06:19:32;1.80;99.90
19952;DHT22;10137;49.406;19.484;2024-03-07T06:21:59;1.70;99.90
19952;DHT22;10137;49.406;19.484;2024-03-07T06:24:27;1.70;99.90
19952;DHT22;10137;49.406;19.484;2024-03-07T06:26:55;1.70;99.90
19952;DHT22;10137;49.406;19.484;2024-03-07T06:29:29;1.70;99.90
19952;DHT22;10137;49.406;19.484;2024-03-07T06:31:56;1.60;99.90
19952;DHT22;10137;49.406;19.484;2024-03-07T06:34:24;1.70;99.90
19952;DHT22;10137;49.406;19.484;2024-03-07T06:36:51;1.70;99.90
19952;DHT22;10137;49.406;19.484;2024-03-07T06:39:18;1.80;99.90
19952;DHT22;10137;49.406;19.484;2024-03-07T06:41:48;1.80;99.90
19952;DHT22;10137;49.406;19.484;2024-03-07T06:44:15;1.80;99.90
19952;DHT22;10137;49.406;19.484;2024-03-07T06:46:43;1.80;99.90
19952;DHT22;10137;49.406;19.484;2024-03-07T06:49:11;1.70;99.90
19952;DHT22;10137;49.406;19.484;2024-03-07T06:51:38;1.60;99.90
19952;DHT22;10137;49.406;19.484;2024-03-07T06:54:05;1.70;99.90
19952;DHT22;10137;49.406;19.484;2024-03-07T06:56:32;1.60;99.90
19952;DHT22;10137;49.406;19.484;2024-03-07T06:59:00;1.70;99.90
19952;DHT22;10137;49.406;19.484;2024-03-07T07:01:30;1.60;99.90
19952;DHT22;10137;49.406;19.484;2024-03-07T07:03:57;1.70;99.90
19952;DHT22;10137;49.406;19.484;2024-03-07T07:06:24;1.60;99.90
19952;DHT22;10137;49.406;19.484;2024-03-07T07:08:53;1.70;99.90
19952;DHT22;10137;49.406;19.484;2024-03-07T07:11:20;1.60;99.90
19952;DHT22;10137;49.406;19.484;2024-03-07T07:13:47;1.60;99.90
19952;DHT22;10137;49.406;19.484;2024-03-07T07:16:16;1.60;99.90
19952;DHT22;10137;49.406;19.484;2024-03-07T07:18:45;1.60;99.90
19952;DHT22;10137;49.406;19.484;2024-03-07T07:21:12;1.70;99.90
19952;DHT22;10137;49.406;19.484;2024-03-07T07:23:41;1.70;99.90
19952;DHT22;10137;49.406;19.484;2024-03-07T07:26:08;1.70;99.90
19952;DHT22;10137;49.406;19.484;2024-03-07T07:28:35;1.70;99.90
19952;DHT22;10137;49.406;19.484;2024-03-07T07:31:03;1.70;99.90
19952;DHT22;10137;49.406;19.484;2024-03-07T07:33:31;1.80;99.90
19952;DHT22;10137;49.406;19.484;2024-03-07T07:35:58;1.70;99.90
19952;DHT22;10137;49.406;19.484;2024-03-07T07:38:25;1.80;99.90
19952;DHT22;10137;49.406;19.484;2024-03-07T07:40:52;1.80;99.90
19952;DHT22;10137;49.406;19.484;2024-03-07T07:43:19;1.80;99.90
19952;DHT22;10137;49.406;19.484;2024-03-07T07:45:46;1.80;99.90
19952;DHT22;10137;49.406;19.484;2024-03-07T07:48:13;1.70;99.90
19952;DHT22;10137;49.406;19.484;2024-03-07T07:50:43;1.60;99.90
19952;DHT22;10137;49.406;19.484;2024-03-07T07:53:10;1.60;99.90
19952;DHT22;10137;49.406;19.484;2024-03-07T07:55:37;1.60;99.90
19952;DHT22;10137;49.406;19.484;2024-03-07T07:58:05;1.60;99.90
19952;DHT22;10137;49.406;19.484;2024-03-07T08:00:33;1.60;99.90
19952;DHT22;10137;49.406;19.484;2024-03-07T08:03:02;1.70;99.90
19952;DHT22;10137;49.406;19.484;2024-03-07T08:05:33;1.60;99.90
19952;DHT22;10137;49.406;19.484;2024-03-07T08:08:03;1.60;99.90
19952;DHT22;10137;49.406;19.484;2024-03-07T08:10:32;1.60;99.90
19952;DHT22;10137;49.406;19.484;2024-03-07T08:13:01;1.50;99.90
19952;DHT22;10137;49.406;19.484;2024-03-07T08:15:29;1.50;99.90
19952;DHT22;10137;49.406;19.484;2024-03-07T08:17:57;1.60;99.90
19952;DHT22;10137;49.406;19.484;2024-03-07T08:20:25;1.60;99.90
19952;DHT22;10137;49.406;19.484;2024-03-07T08:22:53;1.70;99.90
19952;DHT22;10137;49.406;19.484;2024-03-07T08:25:22;1.70;99.90
19952;DHT22;10137;49.406;19.484;2024-03-07T08:27:51;1.70;99.90
19952;DHT22;10137;49.406;19.484;2024-03-07T08:30:18;1.70;99.90
19952;DHT22;10137;49.406;19.484;2024-03-07T08:32:46;1.70;99.90
19952;DHT22;10137;49.406;19.484;2024-03-07T08:35:13;1.60;99.90
19952;DHT22;10137;49.406;19.484;2024-03-07T08:37:43;1.60;99.90
19952;DHT22;10137;49.406;19.484;2024-03-07T08:40:10;1.60;99.90
19952;DHT22;10137;49.406;19.484;2024-03-07T08:42:46;1.50;99.90
19952;DHT22;10137;49.406;19.484;2024-03-07T08:45:14;1.50;99.90
19952;DHT22;10137;49.406;19.484;2024-03-07T08:47:45;1.60;99.90
19952;DHT22;10137;49.406;19.484;2024-03-07T08:50:12;1.60;99.90
19952;DHT22;10137;49.406;19.484;2024-03-07T08:52:40;1.70;99.90
19952;DHT22;10137;49.406;19.484;2024-03-07T08:55:09;1.70;99.90
19952;DHT22;10137;49.406;19.484;2024-03-07T08:57:40;1.60;99.90
19952;DHT22;10137;49.406;19.484;2024-03-07T09:00:11;1.60;99.90
19952;DHT22;10137;49.406;19.484;2024-03-07T09:02:48;1.70;99.90
19952;DHT22;10137;49.406;19.484;2024-03-07T09:05:18;1.60;99.90
19952;DHT22;10137;49.406;19.484;2024-03-07T09:07:45;1.60;99.90
19952;DHT22;10137;49.406;19.484;2024-03-07T09:10:12;1.60;99.90
19952;DHT22;10137;49.406;19.484;2024-03-07T09:12:40;1.60;99.90
19952;DHT22;10137;49.406;19.484;2024-03-07T09:15:07;1.60;99.90
19952;DHT22;10137;49.406;19.484;2024-03-07T09:17:37;1.60;99.90
19952;DHT22;10137;49.406;19.484;2024-03-07T09:20:04;1.70;99.90
19952;DHT22;10137;49.406;19.484;2024-03-07T09:22:31;1.50;99.90
19952;DHT22;10137;49.406;19.484;2024-03-07T09:24:58;1.60;99.90
19952;DHT22;10137;49.406;19.484;2024-03-07T09:27:25;1.60;99.90
19952;DHT22;10137;49.406;19.484;2024-03-07T09:29:52;1.60;99.90
19952;DHT22;10137;49.406;19.484;2024-03-07T09:32:19;1.60;99.90
19952;DHT22;10137;49.406;19.484;2024-03-07T09:34:49;1.60;99.90
19952;DHT22;10137;49.406;19.484;2024-03-07T09:37:15;1.50;99.90
19952;DHT22;10137;49.406;19.484;2024-03-07T09:39:43;1.50;99.90
19952;DHT22;10137;49.406;19.484;2024-03-07T09:42:12;1.50;99.90
19952;DHT22;10137;49.406;19.484;2024-03-07T09:44:42;1.50;99.90
19952;DHT22;10137;49.406;19.484;2024-03-07T09:47:12;1.50;99.90
19952;DHT22;10137;49.406;19.484;2024-03-07T09:49:40;1.50;99.90
19952;DHT22;10137;49.406;19.484;2024-03-07T09:52:09;1.60;99.90
19952;DHT22;10137;49.406;19.484;2024-03-07T09:54:37;1.50;99.90
19952;DHT22;10137;49.406;19.484;2024-03-07T09:57:06;1.40;99.90
19952;DHT22;10137;49.406;19.484;2024-03-07T09:59:35;1.50;99.90
19952;DHT22;10137;49.406;19.484;2024-03-07T10:02:05;1.50;99.90
19952;DHT22;10137;49.406;19.484;2024-03-07T10:04:38;1.50;99.90
19952;DHT22;10137;49.406;19.484;2024-03-07T10:07:08;1.50;99.90
19952;DHT22;10137;49.406;19.484;2024-03-07T10:09:39;1.50;99.90
19952;DHT22;10137;49.406;19.484;2024-03-07T10:12:07;1.60;99.90
19952;DHT22;10137;49.406;19.484;2024-03-07T10:14:38;1.60;99.90
19952;DHT22;10137;49.406;19.484;2024-03-07T10:17:05;1.50;99.90
19952;DHT22;10137;49.406;19.484;2024-03-07T10:19:32;1.50;99.90
19952;DHT22;10137;49.406;19.484;2024-03-07T10:21:59;1.60;99.90
19952;DHT22;10137;49.406;19.484;2024-03-07T10:24:28;1.60;99.90
19952;DHT22;10137;49.406;19.484;2024-03-07T10:26:58;1.60;99.90
19952;DHT22;10137;49.406;19.484;2024-03-07T10:29:26;1.60;99.90
19952;DHT22;10137;49.406;19.484;2024-03-07T10:31:54;1.70;99.90
19952;DHT22;10137;49.406;19.484;2024-03-07T10:34:21;1.60;99.90
19952;DHT22;10137;49.406;19.484;2024-03-07T10:36:49;1.60;99.90
19952;DHT22;10137;49.406;19.484;2024-03-07T10:39:17;1.50;99.90
19952;DHT22;10137;49.406;19.484;2024-03-07T10:41:49;1.50;99.90
19952;DHT22;10137;49.406;19.484;2024-03-07T10:44:19;1.50;99.90
19952;DHT22;10137;49.406;19.484;2024-03-07T10:46:52;1.30;99.90
19952;DHT22;10137;49.406;19.484;2024-03-07T10:49:20;1.40;99.90
19952;DHT22;10137;49.406;19.484;2024-03-07T10:51:58;1.50;99.90
19952;DHT22;10137;49.406;19.484;2024-03-07T10:54:36;1.40;99.90
19952;DHT22;10137;49.406;19.484;2024-03-07T10:57:15;1.50;99.90
19952;DHT22;10137;49.406;19.484;2024-03-07T10:59:50;1.40;99.90
19952;DHT22;10137;49.406;19.484;2024-03-07T11:02:24;1.30;99.90
19952;DHT22;10137;49.406;19.484;2024-03-07T11:04:54;1.30;99.90
19952;DHT22;10137;49.406;19.484;2024-03-07T11:07:22;1.30;99.90
19952;DHT22;10137;49.406;19.484;2024-03-07T11:09:51;1.40;99.90
19952;DHT22;10137;49.406;19.484;2024-03-07T11:12:21;1.40;99.90
19952;DHT22;10137;49.406;19.484;2024-03-07T11:14:51;1.30;99.90
19952;DHT22;10137;49.406;19.484;2024-03-07T11:17:19;1.30;99.90
19952;DHT22;10137;49.406;19.484;2024-03-07T11:19:47;1.30;99.90
19952;DHT22;10137;49.406;19.484;2024-03-07T11:22:28;1.40;99.90
19952;DHT22;10137;49.406;19.484;2024-03-07T11:25:02;1.40;99.90
19952;DHT22;10137;49.406;19.484;2024-03-07T11:27:36;1.40;99.90
19952;DHT22;10137;49.406;19.484;2024-03-07T11:30:07;1.30;99.90
19952;DHT22;10137;49.406;19.484;2024-03-07T11:32:35;1.40;99.90
19952;DHT22;10137;49.406;19.484;2024-03-07T11:35:04;1.30;99.90
19952;DHT22;10137;49.406;19.484;2024-03-07T11:37:39;1.30;99.90
19952;DHT22;10137;49.406;19.484;2024-03-07T11:40:12;1.20;99.90
19952;DHT22;10137;49.406;19.484;2024-03-07T11:42:46;1.20;99.90
19952;DHT22;10137;49.406;19.484;2024-03-07T11:45:15;1.30;99.90
19952;DHT22;10137;49.406;19.484;2024-03-07T11:47:51;1.30;99.90
19952;DHT22;10137;49.406;19.484;2024-03-07T11:50:23;1.20;99.90
19952;DHT22;10137;49.406;19.484;2024-03-07T11:52:51;1.40;99.90
19952;DHT22;10137;49.406;19.484;2024-03-07T11:55:20;1.40;99.90
19952;DHT22;10137;49.406;19.484;2024-03-07T11:57:49;1.40;99.90
19952;DHT22;10137;49.406;19.484;2024-03-07T12:00:18;1.30;99.90
19952;DHT22;10137;49.406;19.484;2024-03-07T12:02:45;1.10;99.90
19952;DHT22;10137;49.406;19.484;2024-03-07T12:05:14;1.10;99.90
19952;DHT22;10137;49.406;19.484;2024-03-07T12:07:43;1.20;99.90
19952;DHT22;10137;49.406;19.484;2024-03-07T12:10:10;1.30;99.90
19952;DHT22;10137;49.406;19.484;2024-03-07T12:12:37;1.20;99.90
19952;DHT22;10137;49.406;19.484;2024-03-07T12:15:06;1.30;99.90
19952;DHT22;10137;49.406;19.484;2024-03-07T12:17:41;1.10;99.90
19952;DHT22;10137;49.406;19.484;2024-03-07T12:20:08;1.10;99.90
19952;DHT22;10137;49.406;19.484;2024-03-07T12:22:50;1.10;99.90
19952;DHT22;10137;49.406;19.484;2024-03-07T12:25:19;1.10;99.90
19952;DHT22;10137;49.406;19.484;2024-03-07T12:27:47;1.10;99.90
19952;DHT22;10137;49.406;19.484;2024-03-07T12:30:18;1.10;99.90
19952;DHT22;10137;49.406;19.484;2024-03-07T12:32:48;1.10;99.90
19952;DHT22;10137;49.406;19.484;2024-03-07T12:35:15;1.20;99.90
19952;DHT22;10137;49.406;19.484;2024-03-07T12:37:44;1.20;99.90
19952;DHT22;10137;49.406;19.484;2024-03-07T12:40:12;1.10;99.90
19952;DHT22;10137;49.406;19.484;2024-03-07T12:42:46;1.20;99.90
19952;DHT22;10137;49.406;19.484;2024-03-07T12:45:13;1.10;99.90
19952;DHT22;10137;49.406;19.484;2024-03-07T12:47:46;1.10;99.90
19952;DHT22;10137;49.406;19.484;2024-03-07T12:50:16;1.30;99.90
19952;DHT22;10137;49.406;19.484;2024-03-07T12:52:43;1.20;99.90
19952;DHT22;10137;49.406;19.484;2024-03-07T12:55:10;1.20;99.90
19952;DHT22;10137;49.406;19.484;2024-03-07T12:57:38;1.20;99.90
19952;DHT22;10137;49.406;19.484;2024-03-07T13:00:07;1.10;99.90
19952;DHT22;10137;49.406;19.484;2024-03-07T13:02:46;1.10;99.90
19952;DHT22;10137;49.406;19.484;2024-03-07T13:05:13;1.10;99.90
19952;DHT22;10137;49.406;19.484;2024-03-07T13:07:45;1.10;99.90
19952;DHT22;10137;49.406;19.484;2024-03-07T13:10:13;1.10;99.90
19952;DHT22;10137;49.406;19.484;2024-03-07T13:12:41;1.00;99.90
19952;DHT22;10137;49.406;19.484;2024-03-07T13:15:09;1.10;99.90
19952;DHT22;10137;49.406;19.484;2024-03-07T13:17:37;1.10;99.90
19952;DHT22;10137;49.406;19.484;2024-03-07T13:20:08;1.10;99.90
19952;DHT22;10137;49.406;19.484;2024-03-07T13:22:40;1.10;99.90
19952;DHT22;10137;49.406;19.484;2024-03-07T13:25:11;1.10;99.90
19952;DHT22;10137;49.406;19.484;2024-03-07T13:27:50;1.10;99.90
19952;DHT22;10137;49.406;19.484;2024-03-07T13:30:21;1.20;99.90
19952;DHT22;10137;49.406;19.484;2024-03-07T13:32:53;1.10;99.90
19952;DHT22;10137;49.406;19.484;2024-03-07T13:35:22;1.10;99.90
19952;DHT22;10137;49.406;19.484;2024-03-07T13:37:50;1.20;99.90
19952;DHT22;10137;49.406;19.484;2024-03-07T13:40:19;1.20;99.90
19952;DHT22;10137;49.406;19.484;2024-03-07T13:42:50;1.20;99.90
19952;DHT22;10137;49.406;19.484;2024-03-07T13:45:20;1.20;99.90
19952;DHT22;10137;49.406;19.484;2024-03-07T13:47:48;1.10;99.90
19952;DHT22;10137;49.406;19.484;2024-03-07T13:50:16;1.10;99.90
19952;DHT22;10137;49.406;19.484;2024-03-07T13:52:46;1.00;99.90
19952;DHT22;10137;49.406;19.484;2024-03-07T13:55:32;1.10;99.90
19952;DHT22;10137;49.406;19.484;2024-03-07T13:58:03;1.10;99.90
19952;DHT22;10137;49.406;19.484;2024-03-07T14:00:41;1.10;99.90
19952;DHT22;10137;49.406;19.484;2024-03-07T14:06:25;1.10;99.90
19952;DHT22;10137;49.406;19.484;2024-03-07T14:09:24;1.10;99.90
19952;DHT22;10137;49.406;19.484;2024-03-07T14:12:27;1.10;99.90
19952;DHT22;10137;49.406;19.484;2024-03-07T14:21:29;0.90;99.90
19952;DHT22;10137;49.406;19.484;2024-03-07T14:24:16;0.90;99.90
19952;DHT22;10137;49.406;19.484;2024-03-07T14:27:15;0.90;99.90
19952;DHT22;10137;49.406;19.484;2024-03-07T14:29:51;0.90;99.90
19952;DHT22;10137;49.406;19.484;2024-03-07T14:32:22;0.90;99.90
19952;DHT22;10137;49.406;19.484;2024-03-07T14:34:58;0.90;99.90
19952;DHT22;10137;49.406;19.484;2024-03-07T14:37:29;0.90;99.90
19952;DHT22;10137;49.406;19.484;2024-03-07T14:40:08;1.00;99.90
19952;DHT22;10137;49.406;19.484;2024-03-07T14:42:37;1.00;99.90
19952;DHT22;10137;49.406;19.484;2024-03-07T14:45:07;0.90;99.90
19952;DHT22;10137;49.406;19.484;2024-03-07T14:47:39;0.90;99.90
19952;DHT22;10137;49.406;19.484;2024-03-07T14:50:06;0.90;99.90
19952;DHT22;10137;49.406;19.484;2024-03-07T14:52:35;1.00;99.90
19952;DHT22;10137;49.406;19.484;2024-03-07T14:55:08;1.00;99.90
19952;DHT22;10137;49.406;19.484;2024-03-07T14:57:37;1.00;99.90
19952;DHT22;10137;49.406;19.484;2024-03-07T15:00:06;1.00;99.90
19952;DHT22;10137;49.406;19.484;2024-03-07T15:02:45;1.10;99.90
19952;DHT22;10137;49.406;19.484;2024-03-07T15:05:13;1.00;99.90
19952;DHT22;10137;49.406;19.484;2024-03-07T15:07:43;1.00;99.90
19952;DHT22;10137;49.406;19.484;2024-03-07T15:10:16;0.90;99.90
19952;DHT22;10137;49.406;19.484;2024-03-07T15:12:44;1.10;99.90
19952;DHT22;10137;49.406;19.484;2024-03-07T15:15:12;1.10;99.90
19952;DHT22;10137;49.406;19.484;2024-03-07T15:17:40;1.00;99.90
19952;DHT22;10137;49.406;19.484;2024-03-07T15:20:08;0.90;99.90
19952;DHT22;10137;49.406;19.484;2024-03-07T15:22:41;0.90;99.90
19952;DHT22;10137;49.406;19.484;2024-03-07T15:25:13;1.00;99.90
19952;DHT22;10137;49.406;19.484;2024-03-07T15:27:43;1.00;99.90
19952;DHT22;10137;49.406;19.484;2024-03-07T15:30:10;1.00;99.90
19952;DHT22;10137;49.406;19.484;2024-03-07T15:32:40;1.00;99.90
19952;DHT22;10137;49.406;19.484;2024-03-07T15:35:08;1.00;99.90
19952;DHT22;10137;49.406;19.484;2024-03-07T15:37:38;1.10;99.90
19952;DHT22;10137;49.406;19.484;2024-03-07T15:40:07;1.00;99.90
19952;DHT22;10137;49.406;19.484;2024-03-07T15:42:41;0.90;99.90
19952;DHT22;10137;49.406;19.484;2024-03-07T15:45:09;1.00;99.90
19952;DHT22;10137;49.406;19.484;2024-03-07T15:47:45;1.10;99.90
19952;DHT22;10137;49.406;19.484;2024-03-07T15:50:12;1.10;99.90